sensor_id;sensor_type;location;lat;lon;timestamp;P1;durP1;ratioP1;P2;durP2;ratioP2
38455;SDS011;24237;50.106;20.014;2023-03-13T00:02:08;18.08;;;6.50;;
38455;SDS011;24237;50.106;20.014;2023-03-13T00:04:33;17.55;;;7.43;;
38455;SDS011;24237;50.106;20.014;2023-03-13T00:06:59;16.50;;;7.07;;
38455;SDS011;24237;50.106;20.014;2023-03-13T00:09:25;16.45;;;6.38;;
38455;SDS011;24237;50.106;20.014;2023-03-13T00:11:51;15.77;;;7.55;;
38455;SDS011;24237;50.106;20.014;2023-03-13T00:14:17;18.98;;;7.20;;
38455;SDS011;24237;50.106;20.014;2023-03-13T00:16:43;16.45;;;6.70;;
38455;SDS011;24237;50.106;20.014;2023-03-13T00:19:08;19.77;;;6.55;;
38455;SDS011;24237;50.106;20.014;2023-03-13T00:21:34;16.65;;;6.80;;
38455;SDS011;24237;50.106;20.014;2023-03-13T00:24:05;17.60;;;6.80;;
38455;SDS011;24237;50.106;20.014;2023-03-13T00:26:31;16.13;;;6.40;;
38455;SDS011;24237;50.106;20.014;2023-03-13T00:28:57;15.55;;;6.00;;
38455;SDS011;24237;50.106;20.014;2023-03-13T00:31:24;14.10;;;5.15;;
38455;SDS011;24237;50.106;20.014;2023-03-13T00:33:52;14.80;;;5.78;;
38455;SDS011;24237;50.106;20.014;2023-03-13T00:36:21;14.60;;;5.10;;
38455;SDS011;24237;50.106;20.014;2023-03-13T00:38:48;10.80;;;5.05;;
38455;SDS011;24237;50.106;20.014;2023-03-13T00:41:15;14.93;;;5.40;;
38455;SDS011;24237;50.106;20.014;2023-03-13T00:43:43;14.85;;;5.20;;
38455;SDS011;24237;50.106;20.014;2023-03-13T00:46:10;11.65;;;5.28;;
38455;SDS011;24237;50.106;20.014;2023-03-13T00:48:36;11.57;;;5.22;;
38455;SDS011;24237;50.106;20.014;2023-03-13T00:51:02;12.60;;;5.50;;
38455;SDS011;24237;50.106;20.014;2023-03-13T00:53:28;9.85;;;4.47;;
38455;SDS011;24237;50.106;20.014;2023-03-13T00:58:22;13.13;;;5.53;;
38455;SDS011;24237;50.106;20.014;2023-03-13T01:00:49;14.00;;;5.85;;
38455;SDS011;24237;50.106;20.014;2023-03-13T01:03:15;11.77;;;5.20;;
38455;SDS011;24237;50.106;20.014;2023-03-13T01:05:40;16.08;;;5.30;;
38455;SDS011;24237;50.106;20.014;2023-03-13T01:08:06;13.40;;;5.43;;
38455;SDS011;24237;50.106;20.014;2023-03-13T01:10:32;11.00;;;4.95;;
38455;SDS011;24237;50.106;20.014;2023-03-13T01:12:59;11.45;;;4.93;;
38455;SDS011;24237;50.106;20.014;2023-03-13T01:15:24;12.10;;;4.82;;
38455;SDS011;24237;50.106;20.014;2023-03-13T01:17:50;8.90;;;4.00;;
38455;SDS011;24237;50.106;20.014;2023-03-13T01:20:16;8.70;;;4.57;;
38455;SDS011;24237;50.106;20.014;2023-03-13T01:22:41;12.23;;;4.90;;
38455;SDS011;24237;50.106;20.014;2023-03-13T01:25:07;12.23;;;4.22;;
38455;SDS011;24237;50.106;20.014;2023-03-13T01:27:33;8.73;;;3.53;;
38455;SDS011;24237;50.106;20.014;2023-03-13T01:29:59;14.00;;;4.10;;
38455;SDS011;24237;50.106;20.014;2023-03-13T01:32:24;7.15;;;3.72;;
38455;SDS011;24237;50.106;20.014;2023-03-13T01:34:50;9.95;;;3.90;;
38455;SDS011;24237;50.106;20.014;2023-03-13T01:37:16;6.22;;;3.15;;
38455;SDS011;24237;50.106;20.014;2023-03-13T01:39:41;7.53;;;3.45;;
38455;SDS011;24237;50.106;20.014;2023-03-13T01:42:07;7.57;;;3.33;;
38455;SDS011;24237;50.106;20.014;2023-03-13T01:44:49;7.05;;;3.20;;
38455;SDS011;24237;50.106;20.014;2023-03-13T01:47:20;8.77;;;3.22;;
38455;SDS011;24237;50.106;20.014;2023-03-13T01:49:46;6.10;;;3.13;;
38455;SDS011;24237;50.106;20.014;2023-03-13T01:52:15;7.88;;;3.38;;
38455;SDS011;24237;50.106;20.014;2023-03-13T01:54:46;9.38;;;3.67;;
38455;SDS011;24237;50.106;20.014;2023-03-13T01:57:26;6.88;;;3.38;;
38455;SDS011;24237;50.106;20.014;2023-03-13T01:59:54;5.85;;;3.10;;
38455;SDS011;24237;50.106;20.014;2023-03-13T02:02:24;6.47;;;3.22;;
38455;SDS011;24237;50.106;20.014;2023-03-13T02:04:52;5.70;;;2.67;;
38455;SDS011;24237;50.106;20.014;2023-03-13T02:07:29;7.22;;;3.58;;
38455;SDS011;24237;50.106;20.014;2023-03-13T02:10:02;5.75;;;2.80;;
38455;SDS011;24237;50.106;20.014;2023-03-13T02:12:32;7.75;;;3.33;;
38455;SDS011;24237;50.106;20.014;2023-03-13T02:15:00;4.75;;;3.00;;
38455;SDS011;24237;50.106;20.014;2023-03-13T02:17:30;5.43;;;3.20;;
38455;SDS011;24237;50.106;20.014;2023-03-13T02:19:57;5.68;;;2.58;;
38455;SDS011;24237;50.106;20.014;2023-03-13T02:22:26;5.60;;;2.97;;
38455;SDS011;24237;50.106;20.014;2023-03-13T02:25:05;5.07;;;2.92;;
38455;SDS011;24237;50.106;20.014;2023-03-13T02:27:36;8.48;;;3.80;;
38455;SDS011;24237;50.106;20.014;2023-03-13T02:30:04;6.72;;;3.08;;
38455;SDS011;24237;50.106;20.014;2023-03-13T02:32:31;7.40;;;3.15;;
38455;SDS011;24237;50.106;20.014;2023-03-13T02:35:00;5.00;;;3.00;;
38455;SDS011;24237;50.106;20.014;2023-03-13T02:37:30;6.40;;;2.78;;
38455;SDS011;24237;50.106;20.014;2023-03-13T02:39:58;7.28;;;3.35;;
38455;SDS011;24237;50.106;20.014;2023-03-13T02:42:27;7.88;;;2.75;;
38455;SDS011;24237;50.106;20.014;2023-03-13T02:44:53;5.22;;;2.83;;
38455;SDS011;24237;50.106;20.014;2023-03-13T02:47:19;6.05;;;3.15;;
38455;SDS011;24237;50.106;20.014;2023-03-13T02:49:46;6.78;;;3.55;;
38455;SDS011;24237;50.106;20.014;2023-03-13T02:52:16;6.07;;;3.10;;
38455;SDS011;24237;50.106;20.014;2023-03-13T02:54:48;5.85;;;3.33;;
38455;SDS011;24237;50.106;20.014;2023-03-13T02:57:17;6.63;;;3.40;;
38455;SDS011;24237;50.106;20.014;2023-03-13T02:59:42;11.02;;;3.95;;
38455;SDS011;24237;50.106;20.014;2023-03-13T03:02:08;6.72;;;3.20;;
38455;SDS011;24237;50.106;20.014;2023-03-13T03:04:34;4.72;;;2.85;;
38455;SDS011;24237;50.106;20.014;2023-03-13T03:06:59;8.13;;;3.20;;
38455;SDS011;24237;50.106;20.014;2023-03-13T03:09:25;8.07;;;3.15;;
38455;SDS011;24237;50.106;20.014;2023-03-13T03:11:51;5.75;;;3.50;;
38455;SDS011;24237;50.106;20.014;2023-03-13T03:14:17;7.28;;;3.05;;
38455;SDS011;24237;50.106;20.014;2023-03-13T03:16:43;5.32;;;2.83;;
38455;SDS011;24237;50.106;20.014;2023-03-13T03:19:08;5.28;;;3.05;;
38455;SDS011;24237;50.106;20.014;2023-03-13T03:21:35;6.10;;;3.22;;
38455;SDS011;24237;50.106;20.014;2023-03-13T03:24:00;5.75;;;3.33;;
38455;SDS011;24237;50.106;20.014;2023-03-13T03:26:26;6.18;;;3.10;;
38455;SDS011;24237;50.106;20.014;2023-03-13T03:28:52;4.88;;;3.25;;
38455;SDS011;24237;50.106;20.014;2023-03-13T03:31:19;6.75;;;3.00;;
38455;SDS011;24237;50.106;20.014;2023-03-13T03:33:45;10.70;;;3.30;;
38455;SDS011;24237;50.106;20.014;2023-03-13T03:36:12;7.30;;;2.90;;
38455;SDS011;24237;50.106;20.014;2023-03-13T03:38:39;7.50;;;3.28;;
38455;SDS011;24237;50.106;20.014;2023-03-13T03:41:06;5.65;;;2.80;;
38455;SDS011;24237;50.106;20.014;2023-03-13T03:43:33;6.45;;;3.38;;
38455;SDS011;24237;50.106;20.014;2023-03-13T03:45:59;7.57;;;3.33;;
38455;SDS011;24237;50.106;20.014;2023-03-13T03:48:24;4.82;;;2.40;;
38455;SDS011;24237;50.106;20.014;2023-03-13T03:50:50;4.70;;;2.67;;
38455;SDS011;24237;50.106;20.014;2023-03-13T03:53:16;5.20;;;2.90;;
38455;SDS011;24237;50.106;20.014;2023-03-13T03:55:42;6.70;;;3.38;;
38455;SDS011;24237;50.106;20.014;2023-03-13T03:58:08;6.93;;;2.83;;
38455;SDS011;24237;50.106;20.014;2023-03-13T04:00:34;6.63;;;3.75;;
38455;SDS011;24237;50.106;20.014;2023-03-13T04:03:00;5.95;;;2.88;;
38455;SDS011;24237;50.106;20.014;2023-03-13T04:05:26;4.95;;;2.92;;
38455;SDS011;24237;50.106;20.014;2023-03-13T04:07:51;6.38;;;2.67;;
38455;SDS011;24237;50.106;20.014;2023-03-13T04:10:17;4.90;;;2.78;;
38455;SDS011;24237;50.106;20.014;2023-03-13T04:12:43;7.65;;;3.40;;
38455;SDS011;24237;50.106;20.014;2023-03-13T04:15:08;6.40;;;3.33;;
38455;SDS011;24237;50.106;20.014;2023-03-13T04:17:34;7.32;;;3.28;;
38455;SDS011;24237;50.106;20.014;2023-03-13T04:20:00;6.38;;;3.70;;
38455;SDS011;24237;50.106;20.014;2023-03-13T04:22:26;7.78;;;3.85;;
38455;SDS011;24237;50.106;20.014;2023-03-13T04:24:51;7.55;;;3.00;;
38455;SDS011;24237;50.106;20.014;2023-03-13T04:27:17;8.45;;;3.75;;
38455;SDS011;24237;50.106;20.014;2023-03-13T04:29:43;6.53;;;3.38;;
38455;SDS011;24237;50.106;20.014;2023-03-13T04:32:09;10.02;;;3.92;;
38455;SDS011;24237;50.106;20.014;2023-03-13T04:34:37;6.53;;;3.58;;
38455;SDS011;24237;50.106;20.014;2023-03-13T04:37:02;10.70;;;3.97;;
38455;SDS011;24237;50.106;20.014;2023-03-13T04:39:28;6.80;;;3.65;;
38455;SDS011;24237;50.106;20.014;2023-03-13T04:41:54;6.25;;;3.38;;
38455;SDS011;24237;50.106;20.014;2023-03-13T04:44:20;10.73;;;4.20;;
38455;SDS011;24237;50.106;20.014;2023-03-13T04:46:47;5.73;;;3.40;;
38455;SDS011;24237;50.106;20.014;2023-03-13T04:49:13;5.18;;;3.60;;
38455;SDS011;24237;50.106;20.014;2023-03-13T04:51:40;11.02;;;4.18;;
38455;SDS011;24237;50.106;20.014;2023-03-13T04:54:06;12.63;;;3.77;;
38455;SDS011;24237;50.106;20.014;2023-03-13T04:56:32;8.35;;;3.90;;
38455;SDS011;24237;50.106;20.014;2023-03-13T04:58:57;6.78;;;3.83;;
38455;SDS011;24237;50.106;20.014;2023-03-13T05:01:23;8.38;;;3.72;;
38455;SDS011;24237;50.106;20.014;2023-03-13T05:03:49;5.68;;;3.22;;
38455;SDS011;24237;50.106;20.014;2023-03-13T05:06:15;7.13;;;4.00;;
38455;SDS011;24237;50.106;20.014;2023-03-13T05:08:40;8.07;;;3.90;;
38455;SDS011;24237;50.106;20.014;2023-03-13T05:11:06;9.85;;;4.00;;
38455;SDS011;24237;50.106;20.014;2023-03-13T05:13:32;7.38;;;3.85;;
38455;SDS011;24237;50.106;20.014;2023-03-13T05:15:59;11.80;;;4.22;;
38455;SDS011;24237;50.106;20.014;2023-03-13T05:18:25;9.88;;;3.70;;
38455;SDS011;24237;50.106;20.014;2023-03-13T05:20:52;8.25;;;4.05;;
38455;SDS011;24237;50.106;20.014;2023-03-13T05:23:17;12.57;;;4.28;;
38455;SDS011;24237;50.106;20.014;2023-03-13T05:25:43;9.38;;;4.00;;
38455;SDS011;24237;50.106;20.014;2023-03-13T05:28:08;14.68;;;4.32;;
38455;SDS011;24237;50.106;20.014;2023-03-13T05:30:34;5.97;;;3.65;;
38455;SDS011;24237;50.106;20.014;2023-03-13T05:33:00;9.48;;;4.25;;
38455;SDS011;24237;50.106;20.014;2023-03-13T05:35:25;8.77;;;4.50;;
38455;SDS011;24237;50.106;20.014;2023-03-13T05:40:42;6.50;;;3.75;;
38455;SDS011;24237;50.106;20.014;2023-03-13T05:43:08;6.20;;;3.67;;
38455;SDS011;24237;50.106;20.014;2023-03-13T05:45:34;8.60;;;3.50;;
38455;SDS011;24237;50.106;20.014;2023-03-13T05:47:59;10.93;;;4.40;;
38455;SDS011;24237;50.106;20.014;2023-03-13T05:50:25;9.73;;;4.07;;
38455;SDS011;24237;50.106;20.014;2023-03-13T05:52:51;10.38;;;4.50;;
38455;SDS011;24237;50.106;20.014;2023-03-13T05:55:17;7.68;;;3.85;;
38455;SDS011;24237;50.106;20.014;2023-03-13T05:57:44;5.97;;;3.90;;
38455;SDS011;24237;50.106;20.014;2023-03-13T06:00:10;11.90;;;4.30;;
38455;SDS011;24237;50.106;20.014;2023-03-13T06:02:36;9.40;;;3.83;;
38455;SDS011;24237;50.106;20.014;2023-03-13T06:05:02;11.38;;;3.78;;
38455;SDS011;24237;50.106;20.014;2023-03-13T06:07:31;8.32;;;3.78;;
38455;SDS011;24237;50.106;20.014;2023-03-13T06:09:56;8.93;;;4.03;;
38455;SDS011;24237;50.106;20.014;2023-03-13T06:12:22;8.55;;;4.40;;
38455;SDS011;24237;50.106;20.014;2023-03-13T06:14:48;10.25;;;3.80;;
38455;SDS011;24237;50.106;20.014;2023-03-13T06:17:13;11.18;;;4.22;;
38455;SDS011;24237;50.106;20.014;2023-03-13T06:19:39;7.75;;;4.20;;
38455;SDS011;24237;50.106;20.014;2023-03-13T06:22:05;11.27;;;4.13;;
38455;SDS011;24237;50.106;20.014;2023-03-13T06:24:30;9.30;;;4.35;;
38455;SDS011;24237;50.106;20.014;2023-03-13T06:26:56;7.72;;;4.18;;
38455;SDS011;24237;50.106;20.014;2023-03-13T06:29:22;11.35;;;4.25;;
38455;SDS011;24237;50.106;20.014;2023-03-13T06:31:48;8.77;;;5.25;;
38455;SDS011;24237;50.106;20.014;2023-03-13T06:34:15;11.45;;;5.53;;
38455;SDS011;24237;50.106;20.014;2023-03-13T06:36:41;12.35;;;4.95;;
38455;SDS011;24237;50.106;20.014;2023-03-13T06:39:07;9.30;;;4.55;;
38455;SDS011;24237;50.106;20.014;2023-03-13T06:41:33;8.55;;;4.88;;
38455;SDS011;24237;50.106;20.014;2023-03-13T06:43:59;14.20;;;4.90;;
38455;SDS011;24237;50.106;20.014;2023-03-13T06:46:25;17.23;;;6.05;;
38455;SDS011;24237;50.106;20.014;2023-03-13T06:48:51;14.63;;;4.75;;
38455;SDS011;24237;50.106;20.014;2023-03-13T06:51:18;8.85;;;4.50;;
38455;SDS011;24237;50.106;20.014;2023-03-13T06:53:45;11.40;;;4.45;;
38455;SDS011;24237;50.106;20.014;2023-03-13T06:56:11;12.02;;;5.15;;
38455;SDS011;24237;50.106;20.014;2023-03-13T06:58:37;13.00;;;4.95;;
38455;SDS011;24237;50.106;20.014;2023-03-13T07:01:07;13.65;;;4.35;;
38455;SDS011;24237;50.106;20.014;2023-03-13T07:03:34;12.38;;;4.72;;
38455;SDS011;24237;50.106;20.014;2023-03-13T07:06:00;15.37;;;4.53;;
38455;SDS011;24237;50.106;20.014;2023-03-13T07:08:27;13.05;;;4.68;;
38455;SDS011;24237;50.106;20.014;2023-03-13T07:10:53;10.93;;;4.28;;
38455;SDS011;24237;50.106;20.014;2023-03-13T07:13:23;10.88;;;4.10;;
38455;SDS011;24237;50.106;20.014;2023-03-13T07:15:49;11.40;;;4.13;;
38455;SDS011;24237;50.106;20.014;2023-03-13T07:18:15;13.40;;;4.10;;
38455;SDS011;24237;50.106;20.014;2023-03-13T07:20:41;12.05;;;4.00;;
38455;SDS011;24237;50.106;20.014;2023-03-13T07:23:07;11.55;;;3.92;;
38455;SDS011;24237;50.106;20.014;2023-03-13T07:25:32;12.13;;;4.20;;
38455;SDS011;24237;50.106;20.014;2023-03-13T07:27:58;13.93;;;3.95;;
38455;SDS011;24237;50.106;20.014;2023-03-13T07:30:25;16.27;;;4.03;;
38455;SDS011;24237;50.106;20.014;2023-03-13T07:32:51;12.68;;;4.10;;
38455;SDS011;24237;50.106;20.014;2023-03-13T07:35:17;10.60;;;3.70;;
38455;SDS011;24237;50.106;20.014;2023-03-13T07:37:42;15.93;;;4.65;;
38455;SDS011;24237;50.106;20.014;2023-03-13T07:40:08;12.10;;;3.85;;
38455;SDS011;24237;50.106;20.014;2023-03-13T07:42:35;11.68;;;3.72;;
38455;SDS011;24237;50.106;20.014;2023-03-13T07:45:00;9.05;;;4.95;;
38455;SDS011;24237;50.106;20.014;2023-03-13T07:47:26;6.63;;;3.28;;
38455;SDS011;24237;50.106;20.014;2023-03-13T07:49:51;19.02;;;4.35;;
38455;SDS011;24237;50.106;20.014;2023-03-13T07:52:17;11.38;;;4.05;;
38455;SDS011;24237;50.106;20.014;2023-03-13T07:54:43;11.35;;;3.90;;
38455;SDS011;24237;50.106;20.014;2023-03-13T07:57:09;12.88;;;3.60;;
38455;SDS011;24237;50.106;20.014;2023-03-13T07:59:35;19.45;;;4.90;;
38455;SDS011;24237;50.106;20.014;2023-03-13T08:02:00;13.27;;;3.83;;
38455;SDS011;24237;50.106;20.014;2023-03-13T08:04:26;15.02;;;4.00;;
38455;SDS011;24237;50.106;20.014;2023-03-13T08:06:52;13.68;;;3.35;;
38455;SDS011;24237;50.106;20.014;2023-03-13T08:09:18;10.32;;;3.97;;
38455;SDS011;24237;50.106;20.014;2023-03-13T08:11:44;7.78;;;3.22;;
38455;SDS011;24237;50.106;20.014;2023-03-13T08:14:10;6.53;;;2.92;;
38455;SDS011;24237;50.106;20.014;2023-03-13T08:16:36;11.50;;;3.50;;
38455;SDS011;24237;50.106;20.014;2023-03-13T08:19:03;12.52;;;4.15;;
38455;SDS011;24237;50.106;20.014;2023-03-13T08:21:30;13.10;;;4.57;;
38455;SDS011;24237;50.106;20.014;2023-03-13T08:24:02;8.90;;;3.22;;
38455;SDS011;24237;50.106;20.014;2023-03-13T08:26:31;15.40;;;4.32;;
38455;SDS011;24237;50.106;20.014;2023-03-13T08:28:58;9.30;;;2.95;;
38455;SDS011;24237;50.106;20.014;2023-03-13T08:31:30;12.38;;;3.45;;
38455;SDS011;24237;50.106;20.014;2023-03-13T08:33:58;7.82;;;3.30;;
38455;SDS011;24237;50.106;20.014;2023-03-13T08:36:30;8.30;;;3.38;;
38455;SDS011;24237;50.106;20.014;2023-03-13T08:39:02;6.93;;;2.50;;
38455;SDS011;24237;50.106;20.014;2023-03-13T08:41:31;5.75;;;2.67;;
38455;SDS011;24237;50.106;20.014;2023-03-13T08:44:00;8.88;;;2.90;;
38455;SDS011;24237;50.106;20.014;2023-03-13T08:46:27;9.90;;;3.40;;
38455;SDS011;24237;50.106;20.014;2023-03-13T08:48:54;13.63;;;3.00;;
38455;SDS011;24237;50.106;20.014;2023-03-13T08:51:23;8.02;;;3.28;;
38455;SDS011;24237;50.106;20.014;2023-03-13T08:53:50;9.82;;;3.17;;
38455;SDS011;24237;50.106;20.014;2023-03-13T08:56:18;10.23;;;3.88;;
38455;SDS011;24237;50.106;20.014;2023-03-13T08:58:52;9.63;;;2.85;;
38455;SDS011;24237;50.106;20.014;2023-03-13T09:01:19;7.45;;;2.33;;
38455;SDS011;24237;50.106;20.014;2023-03-13T09:03:46;11.38;;;3.60;;
38455;SDS011;24237;50.106;20.014;2023-03-13T09:06:12;15.55;;;3.50;;
38455;SDS011;24237;50.106;20.014;2023-03-13T09:08:38;12.35;;;3.58;;
38455;SDS011;24237;50.106;20.014;2023-03-13T09:11:09;12.25;;;3.17;;
38455;SDS011;24237;50.106;20.014;2023-03-13T09:13:42;11.48;;;3.40;;
38455;SDS011;24237;50.106;20.014;2023-03-13T09:16:10;13.15;;;3.60;;
38455;SDS011;24237;50.106;20.014;2023-03-13T09:18:37;14.90;;;3.05;;
38455;SDS011;24237;50.106;20.014;2023-03-13T09:21:08;8.98;;;2.60;;
38455;SDS011;24237;50.106;20.014;2023-03-13T09:23:36;6.80;;;3.30;;
38455;SDS011;24237;50.106;20.014;2023-03-13T09:26:02;15.77;;;4.22;;
38455;SDS011;24237;50.106;20.014;2023-03-13T09:28:28;14.52;;;3.28;;
38455;SDS011;24237;50.106;20.014;2023-03-13T09:30:54;10.18;;;3.20;;
38455;SDS011;24237;50.106;20.014;2023-03-13T09:33:20;10.02;;;2.92;;
38455;SDS011;24237;50.106;20.014;2023-03-13T09:35:48;6.05;;;2.50;;
38455;SDS011;24237;50.106;20.014;2023-03-13T09:38:17;9.73;;;3.72;;
38455;SDS011;24237;50.106;20.014;2023-03-13T09:40:44;12.50;;;2.92;;
38455;SDS011;24237;50.106;20.014;2023-03-13T09:43:23;9.45;;;3.13;;
38455;SDS011;24237;50.106;20.014;2023-03-13T09:46:02;14.48;;;3.17;;
38455;SDS011;24237;50.106;20.014;2023-03-13T09:48:38;10.57;;;2.25;;
38455;SDS011;24237;50.106;20.014;2023-03-13T09:51:23;9.48;;;2.35;;
38455;SDS011;24237;50.106;20.014;2023-03-13T09:56:40;11.43;;;2.67;;
38455;SDS011;24237;50.106;20.014;2023-03-13T10:02:21;6.30;;;2.20;;
38455;SDS011;24237;50.106;20.014;2023-03-13T10:04:55;9.32;;;2.38;;
38455;SDS011;24237;50.106;20.014;2023-03-13T10:07:38;12.70;;;3.05;;
38455;SDS011;24237;50.106;20.014;2023-03-13T10:10:06;6.03;;;2.40;;
38455;SDS011;24237;50.106;20.014;2023-03-13T10:12:46;9.20;;;3.15;;
38455;SDS011;24237;50.106;20.014;2023-03-13T10:18:30;11.38;;;2.40;;
38455;SDS011;24237;50.106;20.014;2023-03-13T10:20:58;13.63;;;3.22;;
38455;SDS011;24237;50.106;20.014;2023-03-13T10:23:26;8.25;;;2.47;;
38455;SDS011;24237;50.106;20.014;2023-03-13T10:26:03;9.40;;;3.10;;
38455;SDS011;24237;50.106;20.014;2023-03-13T10:28:29;6.93;;;2.40;;
38455;SDS011;24237;50.106;20.014;2023-03-13T10:31:01;13.32;;;2.40;;
38455;SDS011;24237;50.106;20.014;2023-03-13T10:33:37;9.68;;;2.50;;
38455;SDS011;24237;50.106;20.014;2023-03-13T10:36:05;6.30;;;2.30;;
38455;SDS011;24237;50.106;20.014;2023-03-13T10:38:35;9.60;;;2.28;;
38455;SDS011;24237;50.106;20.014;2023-03-13T10:41:22;13.15;;;3.45;;
38455;SDS011;24237;50.106;20.014;2023-03-13T10:43:50;8.82;;;2.22;;
38455;SDS011;24237;50.106;20.014;2023-03-13T10:46:24;11.13;;;2.88;;
38455;SDS011;24237;50.106;20.014;2023-03-13T10:48:52;6.47;;;2.22;;
38455;SDS011;24237;50.106;20.014;2023-03-13T10:51:20;6.70;;;2.50;;
38455;SDS011;24237;50.106;20.014;2023-03-13T10:53:47;7.15;;;2.58;;
38455;SDS011;24237;50.106;20.014;2023-03-13T10:56:15;4.57;;;1.63;;
38455;SDS011;24237;50.106;20.014;2023-03-13T10:58:49;8.38;;;2.20;;
38455;SDS011;24237;50.106;20.014;2023-03-13T11:01:19;8.95;;;2.25;;
38455;SDS011;24237;50.106;20.014;2023-03-13T11:03:56;7.28;;;2.42;;
38455;SDS011;24237;50.106;20.014;2023-03-13T11:06:33;7.63;;;2.50;;
38455;SDS011;24237;50.106;20.014;2023-03-13T11:11:55;8.57;;;2.25;;
38455;SDS011;24237;50.106;20.014;2023-03-13T11:14:26;10.52;;;2.45;;
38455;SDS011;24237;50.106;20.014;2023-03-13T11:19:54;10.10;;;2.35;;
38455;SDS011;24237;50.106;20.014;2023-03-13T11:25:05;10.63;;;1.75;;
38455;SDS011;24237;50.106;20.014;2023-03-13T11:27:57;4.65;;;1.48;;
38455;SDS011;24237;50.106;20.014;2023-03-13T11:31:02;10.52;;;2.13;;
38455;SDS011;24237;50.106;20.014;2023-03-13T11:33:47;6.63;;;1.65;;
38455;SDS011;24237;50.106;20.014;2023-03-13T11:36:35;6.07;;;2.08;;
38455;SDS011;24237;50.106;20.014;2023-03-13T11:39:26;5.20;;;1.80;;
38455;SDS011;24237;50.106;20.014;2023-03-13T11:51:06;7.68;;;1.67;;
38455;SDS011;24237;50.106;20.014;2023-03-13T11:56:40;4.75;;;1.77;;
38455;SDS011;24237;50.106;20.014;2023-03-13T12:01:47;4.07;;;1.38;;
38455;SDS011;24237;50.106;20.014;2023-03-13T12:04:22;6.30;;;1.92;;
38455;SDS011;24237;50.106;20.014;2023-03-13T12:06:59;4.95;;;1.55;;
38455;SDS011;24237;50.106;20.014;2023-03-13T12:12:19;3.75;;;1.60;;
38455;SDS011;24237;50.106;20.014;2023-03-13T12:15:01;5.63;;;1.70;;
38455;SDS011;24237;50.106;20.014;2023-03-13T12:17:52;2.15;;;1.25;;
38455;SDS011;24237;50.106;20.014;2023-03-13T12:20:40;4.22;;;1.40;;
38455;SDS011;24237;50.106;20.014;2023-03-13T12:23:25;6.75;;;1.38;;
38455;SDS011;24237;50.106;20.014;2023-03-13T12:26:03;3.85;;;1.52;;
38455;SDS011;24237;50.106;20.014;2023-03-13T12:28:40;5.53;;;1.80;;
38455;SDS011;24237;50.106;20.014;2023-03-13T12:31:16;6.65;;;1.95;;
38455;SDS011;24237;50.106;20.014;2023-03-13T12:36:52;2.70;;;1.17;;
38455;SDS011;24237;50.106;20.014;2023-03-13T12:42:09;5.70;;;1.27;;
38455;SDS011;24237;50.106;20.014;2023-03-13T12:44:38;5.82;;;1.10;;
38455;SDS011;24237;50.106;20.014;2023-03-13T12:50:12;4.60;;;0.90;;
38455;SDS011;24237;50.106;20.014;2023-03-13T12:56:09;4.22;;;0.98;;
38455;SDS011;24237;50.106;20.014;2023-03-13T12:58:57;7.88;;;1.45;;
38455;SDS011;24237;50.106;20.014;2023-03-13T13:01:44;2.83;;;1.02;;
38455;SDS011;24237;50.106;20.014;2023-03-13T13:04:22;4.28;;;1.33;;
38455;SDS011;24237;50.106;20.014;2023-03-13T13:07:20;4.82;;;1.23;;
38455;SDS011;24237;50.106;20.014;2023-03-13T13:12:40;4.80;;;1.10;;
38455;SDS011;24237;50.106;20.014;2023-03-13T13:15:17;5.45;;;1.30;;
38455;SDS011;24237;50.106;20.014;2023-03-13T13:21:26;4.78;;;1.30;;
38455;SDS011;24237;50.106;20.014;2023-03-13T13:23:53;5.85;;;1.08;;
38455;SDS011;24237;50.106;20.014;2023-03-13T13:26:59;3.25;;;1.27;;
38455;SDS011;24237;50.106;20.014;2023-03-13T13:47:39;4.63;;;1.35;;
38455;SDS011;24237;50.106;20.014;2023-03-13T13:50:27;4.78;;;1.30;;
38455;SDS011;24237;50.106;20.014;2023-03-13T13:58:23;2.92;;;1.30;;
38455;SDS011;24237;50.106;20.014;2023-03-13T14:01:13;1.65;;;0.95;;
38455;SDS011;24237;50.106;20.014;2023-03-13T14:03:41;5.40;;;1.67;;
38455;SDS011;24237;50.106;20.014;2023-03-13T14:06:19;6.40;;;1.42;;
38455;SDS011;24237;50.106;20.014;2023-03-13T14:08:49;4.47;;;1.10;;
38455;SDS011;24237;50.106;20.014;2023-03-13T14:11:23;2.20;;;1.33;;
38455;SDS011;24237;50.106;20.014;2023-03-13T14:14:17;3.08;;;1.00;;
38455;SDS011;24237;50.106;20.014;2023-03-13T14:16:45;2.92;;;1.00;;
38455;SDS011;24237;50.106;20.014;2023-03-13T14:19:32;2.22;;;1.25;;
38455;SDS011;24237;50.106;20.014;2023-03-13T14:22:12;7.85;;;1.40;;
38455;SDS011;24237;50.106;20.014;2023-03-13T14:24:38;2.53;;;1.23;;
38455;SDS011;24237;50.106;20.014;2023-03-13T14:27:15;3.15;;;1.45;;
38455;SDS011;24237;50.106;20.014;2023-03-13T14:32:44;4.90;;;1.25;;
38455;SDS011;24237;50.106;20.014;2023-03-13T14:35:12;5.40;;;1.50;;
38455;SDS011;24237;50.106;20.014;2023-03-13T14:37:44;4.93;;;1.50;;
38455;SDS011;24237;50.106;20.014;2023-03-13T14:40:24;3.95;;;1.45;;
38455;SDS011;24237;50.106;20.014;2023-03-13T14:42:53;4.78;;;1.38;;
38455;SDS011;24237;50.106;20.014;2023-03-13T14:45:30;2.75;;;1.30;;
38455;SDS011;24237;50.106;20.014;2023-03-13T14:48:10;2.15;;;1.23;;
38455;SDS011;24237;50.106;20.014;2023-03-13T14:51:00;4.18;;;1.65;;
38455;SDS011;24237;50.106;20.014;2023-03-13T14:53:28;4.45;;;1.40;;
38455;SDS011;24237;50.106;20.014;2023-03-13T14:56:10;4.45;;;1.50;;
38455;SDS011;24237;50.106;20.014;2023-03-13T14:58:43;4.45;;;1.63;;
38455;SDS011;24237;50.106;20.014;2023-03-13T15:01:30;6.38;;;1.52;;
38455;SDS011;24237;50.106;20.014;2023-03-13T15:03:55;2.78;;;1.70;;
38455;SDS011;24237;50.106;20.014;2023-03-13T15:06:24;3.90;;;1.52;;
38455;SDS011;24237;50.106;20.014;2023-03-13T15:09:06;4.38;;;1.42;;
38455;SDS011;24237;50.106;20.014;2023-03-13T15:11:41;5.18;;;1.33;;
38455;SDS011;24237;50.106;20.014;2023-03-13T15:14:36;3.08;;;1.35;;
38455;SDS011;24237;50.106;20.014;2023-03-13T15:19:51;3.97;;;1.55;;
38455;SDS011;24237;50.106;20.014;2023-03-13T15:22:21;2.92;;;1.48;;
38455;SDS011;24237;50.106;20.014;2023-03-13T15:25:02;3.00;;;1.48;;
38455;SDS011;24237;50.106;20.014;2023-03-13T15:27:28;4.43;;;1.73;;
38455;SDS011;24237;50.106;20.014;2023-03-13T15:29:54;8.30;;;1.73;;
38455;SDS011;24237;50.106;20.014;2023-03-13T15:34:57;2.95;;;1.55;;
38455;SDS011;24237;50.106;20.014;2023-03-13T15:37:25;8.43;;;1.52;;
38455;SDS011;24237;50.106;20.014;2023-03-13T15:39:55;4.47;;;1.80;;
38455;SDS011;24237;50.106;20.014;2023-03-13T15:42:22;3.35;;;1.63;;
38455;SDS011;24237;50.106;20.014;2023-03-13T15:44:48;3.28;;;1.65;;
38455;SDS011;24237;50.106;20.014;2023-03-13T15:47:17;7.10;;;1.90;;
38455;SDS011;24237;50.106;20.014;2023-03-13T15:49:44;3.17;;;1.65;;
38455;SDS011;24237;50.106;20.014;2023-03-13T15:52:18;4.05;;;1.75;;
38455;SDS011;24237;50.106;20.014;2023-03-13T15:54:46;2.60;;;1.77;;
38455;SDS011;24237;50.106;20.014;2023-03-13T15:57:17;4.53;;;1.95;;
38455;SDS011;24237;50.106;20.014;2023-03-13T15:59:47;4.03;;;2.42;;
38455;SDS011;24237;50.106;20.014;2023-03-13T16:02:14;3.47;;;2.00;;
38455;SDS011;24237;50.106;20.014;2023-03-13T16:04:42;6.20;;;2.20;;
38455;SDS011;24237;50.106;20.014;2023-03-13T16:07:16;4.90;;;1.70;;
38455;SDS011;24237;50.106;20.014;2023-03-13T16:09:44;4.10;;;1.95;;
38455;SDS011;24237;50.106;20.014;2023-03-13T16:12:11;2.47;;;1.50;;
38455;SDS011;24237;50.106;20.014;2023-03-13T16:14:37;3.95;;;2.10;;
38455;SDS011;24237;50.106;20.014;2023-03-13T16:17:14;8.27;;;2.20;;